createdAt,value
2018-07-22T00:00:09.848Z,93.02
2018-07-22T00:01:09.892Z,92.70
2018-07-22T00:02:09.781Z,92.40
2018-07-22T00:03:09.877Z,92.27
2018-07-22T00:04:09.820Z,92.22
2018-07-22T00:05:09.847Z,92.05
2018-07-22T00:06:09.780Z,92.03
2018-07-22T00:07:09.888Z,91.97
2018-07-22T00:08:09.777Z,91.79
2018-07-22T00:09:09.787Z,91.63
2018-07-22T00:10:09.764Z,91.55
2018-07-22T00:11:09.800Z,91.47
2018-07-22T00:12:09.796Z,91.60
2018-07-22T00:13:09.823Z,91.44
2018-07-22T00:14:09.957Z,91.44
2018-07-22T00:15:09.903Z,91.36
2018-07-22T00:16:09.788Z,91.44
2018-07-22T00:17:09.839Z,91.36
2018-07-22T00:18:09.823Z,91.33
2018-07-22T00:19:09.863Z,91.47
2018-07-22T00:20:09.771Z,91.36
2018-07-22T00:21:09.790Z,91.36
2018-07-22T00:22:09.843Z,91.49
2018-07-22T00:23:09.888Z,91.71
2018-07-22T00:24:09.896Z,91.84
2018-07-22T00:25:09.898Z,91.90
2018-07-22T00:26:09.768Z,91.97
2018-07-22T00:27:09.785Z,92.16
2018-07-22T00:28:09.814Z,92.11
2018-07-22T00:29:09.916Z,92.14
2018-07-22T00:30:09.791Z,92.51
2018-07-22T00:31:09.910Z,92.57
2018-07-22T00:32:09.878Z,92.84
2018-07-22T00:33:09.808Z,93.26
2018-07-22T00:34:09.770Z,93.48
2018-07-22T00:35:09.808Z,93.83
2018-07-22T00:36:09.881Z,94.12
2018-07-22T00:37:09.774Z,94.15
2018-07-22T00:38:09.880Z,94.15
2018-07-22T00:39:09.811Z,94.10
2018-07-22T00:40:09.852Z,94.23
2018-07-22T00:41:09.812Z,94.15
2018-07-22T00:42:09.846Z,94.48
2018-07-22T00:43:09.881Z,94.77
2018-07-22T00:44:09.816Z,94.96
2018-07-22T00:45:09.886Z,95.37
2018-07-22T00:46:09.882Z,95.45
2018-07-22T00:47:09.885Z,95.64
2018-07-22T00:48:09.815Z,95.75
2018-07-22T00:49:09.833Z,95.64
2018-07-22T00:50:09.816Z,95.47
2018-07-22T00:51:09.821Z,95.18
2018-07-22T00:52:09.934Z,94.96
2018-07-22T00:53:09.917Z,95.01
2018-07-22T00:54:09.929Z,95.50
2018-07-22T00:55:09.893Z,96.02
2018-07-22T00:56:09.815Z,96.28
2018-07-22T00:57:09.818Z,96.34
2018-07-22T00:58:09.873Z,96.50
2018-07-22T00:59:09.851Z,96.45
2018-07-22T01:00:09.994Z,96.36
2018-07-22T01:01:09.937Z,96.39
2018-07-22T01:02:09.899Z,96.66
2018-07-22T01:03:09.916Z,96.80
2018-07-22T01:04:09.920Z,97.02
2018-07-22T01:05:09.933Z,97.18
2018-07-22T01:06:09.878Z,97.21
2018-07-22T01:07:09.804Z,97.18
2018-07-22T01:08:09.938Z,97.10
2018-07-22T01:09:09.880Z,97.07
2018-07-22T01:10:09.943Z,96.93
2018-07-22T01:11:09.865Z,96.88
2018-07-22T01:12:09.968Z,97.12
2018-07-22T01:13:09.907Z,97.39
2018-07-22T01:14:09.962Z,97.47
2018-07-22T01:15:09.944Z,97.53
2018-07-22T01:16:09.940Z,97.61
2018-07-22T01:17:09.829Z,97.83
2018-07-22T01:18:09.868Z,97.91
2018-07-22T01:19:09.865Z,98.26
2018-07-22T01:20:09.915Z,98.48
2018-07-22T01:21:09.878Z,98.55
2018-07-22T01:22:09.877Z,98.77
2018-07-22T01:23:09.875Z,99.02
2018-07-22T01:24:09.914Z,99.21
2018-07-22T01:25:09.912Z,99.43
2018-07-22T01:26:09.935Z,99.53
2018-07-22T01:27:09.881Z,99.67
2018-07-22T01:28:09.925Z,99.81
2018-07-22T01:29:09.951Z,99.86
2018-07-22T01:30:09.891Z,99.92
2018-07-22T01:31:09.837Z,99.94
2018-07-22T01:32:09.917Z,99.99
2018-07-22T01:33:09.919Z,99.99
2018-07-22T01:34:09.890Z,99.99
2018-07-22T01:35:09.918Z,99.99
2018-07-22T01:36:09.972Z,99.99
2018-07-22T01:37:09.860Z,99.99
2018-07-22T01:38:09.850Z,99.99
2018-07-22T01:39:09.852Z,99.99
2018-07-22T01:40:09.923Z,99.99
2018-07-22T01:41:09.908Z,99.99
2018-07-22T01:42:09.989Z,99.99
2018-07-22T01:43:09.906Z,99.99
2018-07-22T01:44:09.957Z,99.99
2018-07-22T01:45:09.847Z,99.99
2018-07-22T01:46:09.955Z,99.99
2018-07-22T01:47:09.924Z,99.99
2018-07-22T01:48:09.931Z,99.99
2018-07-22T01:49:09.847Z,99.99
2018-07-22T01:50:09.886Z,99.99
2018-07-22T01:51:09.929Z,99.99
2018-07-22T01:52:09.927Z,99.99
2018-07-22T01:53:09.871Z,99.99
2018-07-22T01:54:09.860Z,99.99
2018-07-22T01:55:09.863Z,99.99
2018-07-22T01:56:09.932Z,99.99
2018-07-22T01:57:09.942Z,99.99
2018-07-22T01:58:09.935Z,99.99
2018-07-22T01:59:09.867Z,99.99
2018-07-22T02:00:09.870Z,99.99
2018-07-22T02:01:10.001Z,99.96
2018-07-22T02:02:09.939Z,99.96
2018-07-22T02:03:09.943Z,99.94
2018-07-22T02:04:09.937Z,99.86
2018-07-22T02:05:09.941Z,99.83
2018-07-22T02:06:09.873Z,99.83
2018-07-22T02:07:09.943Z,99.89
2018-07-22T02:08:09.836Z,99.78
2018-07-22T02:09:09.874Z,99.94
2018-07-22T02:10:09.875Z,99.86
2018-07-22T02:11:09.943Z,99.92
2018-07-22T02:12:09.946Z,99.96
2018-07-22T02:13:09.968Z,99.99
2018-07-22T02:14:09.948Z,99.99
2018-07-22T02:15:09.878Z,99.99
2018-07-22T02:16:09.903Z,99.99
2018-07-22T02:17:09.916Z,99.99
2018-07-22T02:18:09.952Z,99.99
2018-07-22T02:19:09.885Z,99.99
2018-07-22T02:20:09.973Z,99.99
2018-07-22T02:21:09.959Z,99.99
2018-07-22T02:22:09.911Z,99.99
2018-07-22T02:23:09.882Z,99.99
2018-07-22T02:24:09.892Z,99.99
2018-07-22T02:25:09.886Z,99.99
2018-07-22T02:26:09.841Z,99.99
2018-07-22T02:27:09.885Z,99.99
2018-07-22T02:28:09.975Z,99.99
2018-07-22T02:29:09.887Z,99.99
2018-07-22T02:30:09.890Z,99.99
2018-07-22T02:31:09.892Z,99.99
2018-07-22T02:32:10.033Z,99.99
2018-07-22T02:33:09.876Z,99.99
2018-07-22T02:34:09.910Z,99.99
2018-07-22T02:35:09.817Z,99.99
2018-07-22T02:36:09.919Z,99.99
2018-07-22T02:37:09.828Z,99.99
2018-07-22T02:38:09.876Z,99.99
2018-07-22T02:39:09.882Z,99.99
2018-07-22T02:40:09.913Z,99.99
2018-07-22T02:41:09.879Z,99.99
2018-07-22T02:42:09.884Z,99.99
2018-07-22T02:43:09.985Z,99.99
2018-07-22T02:44:09.886Z,99.99
2018-07-22T02:45:10.053Z,99.99
2018-07-22T02:46:09.958Z,99.99
2018-07-22T02:47:09.886Z,99.99
2018-07-22T02:48:09.963Z,99.99
2018-07-22T02:49:09.889Z,99.99
2018-07-22T02:50:09.961Z,99.99
2018-07-22T02:51:09.894Z,99.99
2018-07-22T02:52:09.962Z,99.99
2018-07-22T02:53:09.974Z,99.99
2018-07-22T02:54:09.979Z,99.99
2018-07-22T02:55:09.945Z,99.99
2018-07-22T02:56:09.985Z,99.99
2018-07-22T02:57:09.993Z,99.99
2018-07-22T02:58:09.962Z,99.99
2018-07-22T02:59:09.893Z,99.99
2018-07-22T03:00:10.026Z,99.99
2018-07-22T03:01:09.918Z,99.99
2018-07-22T03:02:09.956Z,99.99
2018-07-22T03:03:09.903Z,99.99
2018-07-22T03:04:09.896Z,99.99
2018-07-22T03:05:10.013Z,99.99
2018-07-22T03:06:09.918Z,99.99
2018-07-22T03:07:09.907Z,99.99
2018-07-22T03:08:09.901Z,99.99
2018-07-22T03:09:09.904Z,99.99
2018-07-22T03:10:10.016Z,99.99
2018-07-22T03:11:09.905Z,99.99
2018-07-22T03:12:10.010Z,99.99
2018-07-22T03:13:10.025Z,99.99
2018-07-22T03:14:09.961Z,99.99
2018-07-22T03:15:09.899Z,99.99
2018-07-22T03:16:09.969Z,99.99
2018-07-22T03:17:10.015Z,99.99
2018-07-22T03:18:09.946Z,99.99
2018-07-22T03:19:09.963Z,99.99
2018-07-22T03:20:09.967Z,99.99
2018-07-22T03:21:10.050Z,99.99
2018-07-22T03:22:09.928Z,99.99
2018-07-22T03:23:09.991Z,99.99
2018-07-22T03:24:09.950Z,99.99
2018-07-22T03:25:09.919Z,99.99
2018-07-22T03:26:09.999Z,99.99
2018-07-22T03:27:10.042Z,99.99
2018-07-22T03:28:09.977Z,99.99
2018-07-22T03:29:09.932Z,99.99
2018-07-22T03:30:10.003Z,99.99
2018-07-22T03:31:09.972Z,99.99
2018-07-22T03:32:10.040Z,99.99
2018-07-22T03:33:09.894Z,99.99
2018-07-22T03:34:09.886Z,99.99
2018-07-22T03:35:09.918Z,99.99
2018-07-22T03:36:09.919Z,99.99
2018-07-22T03:37:09.919Z,99.99
2018-07-22T03:38:09.923Z,99.99
2018-07-22T03:39:09.893Z,99.99
2018-07-22T03:40:09.865Z,99.99
2018-07-22T03:41:09.922Z,99.99
2018-07-22T03:42:09.973Z,99.99
2018-07-22T03:43:09.907Z,99.99
2018-07-22T03:44:09.866Z,99.99
2018-07-22T03:45:09.905Z,99.99
2018-07-22T03:46:09.950Z,99.83
2018-07-22T03:47:09.952Z,99.83
2018-07-22T03:48:09.997Z,99.78
2018-07-22T03:49:09.951Z,99.62
2018-07-22T03:50:09.950Z,99.51
2018-07-22T03:51:09.890Z,99.26
2018-07-22T03:52:09.909Z,99.04
2018-07-22T03:53:10.110Z,98.94
2018-07-22T03:54:10.016Z,98.85
2018-07-22T03:55:10.021Z,98.75
2018-07-22T03:56:09.944Z,98.75
2018-07-22T03:57:09.975Z,98.72
2018-07-22T03:58:10.025Z,98.66
2018-07-22T03:59:09.946Z,98.61
2018-07-22T04:00:09.913Z,98.53
2018-07-22T04:01:09.951Z,98.48
2018-07-22T04:02:10.018Z,98.37
2018-07-22T04:03:10.023Z,98.34
2018-07-22T04:04:10.026Z,98.23
2018-07-22T04:05:09.941Z,98.23
2018-07-22T04:06:10.023Z,98.12
2018-07-22T04:07:10.021Z,98.02
2018-07-22T04:08:10.000Z,98.04
2018-07-22T04:09:10.167Z,97.99
2018-07-22T04:10:10.048Z,97.93
2018-07-22T04:11:09.962Z,97.91
2018-07-22T04:12:10.040Z,97.83
2018-07-22T04:13:09.942Z,97.83
2018-07-22T04:14:09.913Z,97.80
2018-07-22T04:15:09.978Z,97.77
2018-07-22T04:16:09.970Z,97.69
2018-07-22T04:17:09.971Z,97.64
2018-07-22T04:18:09.934Z,97.61
2018-07-22T04:19:09.886Z,97.50
2018-07-22T04:20:09.975Z,97.45
2018-07-22T04:21:09.975Z,97.50
2018-07-22T04:22:09.934Z,97.69
2018-07-22T04:23:09.948Z,97.80
2018-07-22T04:24:09.955Z,97.80
2018-07-22T04:25:10.023Z,97.77
2018-07-22T04:26:09.955Z,97.77
2018-07-22T04:27:10.028Z,97.69
2018-07-22T04:28:09.972Z,97.69
2018-07-22T04:29:09.906Z,97.61
2018-07-22T04:30:09.958Z,97.64
2018-07-22T04:31:10.031Z,97.64
2018-07-22T04:32:10.029Z,97.55
2018-07-22T04:33:09.938Z,97.47
2018-07-22T04:34:10.040Z,97.39
2018-07-22T04:35:10.066Z,97.28
2018-07-22T04:36:09.960Z,97.15
2018-07-22T04:37:10.020Z,97.04
2018-07-22T04:38:10.023Z,96.85
2018-07-22T04:39:10.071Z,96.61
2018-07-22T04:40:10.072Z,96.42
2018-07-22T04:41:10.011Z,96.31
2018-07-22T04:42:10.079Z,96.09
2018-07-22T04:43:09.907Z,95.96
2018-07-22T04:44:09.994Z,95.77
2018-07-22T04:45:09.901Z,95.47
2018-07-22T04:46:09.991Z,95.45
2018-07-22T04:47:09.966Z,95.45
2018-07-22T04:48:09.992Z,95.42
2018-07-22T04:49:09.951Z,95.37
2018-07-22T04:50:09.928Z,95.31
2018-07-22T04:51:09.998Z,95.04
2018-07-22T04:52:10.005Z,94.77
2018-07-22T04:53:10.053Z,94.42
2018-07-22T04:54:09.981Z,94.31
2018-07-22T04:55:10.052Z,94.21
2018-07-22T04:56:09.986Z,94.18
2018-07-22T04:57:10.052Z,94.10
2018-07-22T04:58:09.984Z,94.02
2018-07-22T04:59:09.986Z,94.02
2018-07-22T05:00:10.056Z,93.96
2018-07-22T05:01:10.059Z,93.83
2018-07-22T05:02:09.988Z,93.62
2018-07-22T05:03:10.038Z,93.40
2018-07-22T05:04:10.036Z,93.32
2018-07-22T05:05:10.014Z,93.26
2018-07-22T05:06:10.062Z,93.43
2018-07-22T05:07:10.061Z,93.35
2018-07-22T05:08:10.094Z,93.48
2018-07-22T05:09:10.028Z,93.81
2018-07-22T05:10:10.072Z,94.04
2018-07-22T05:11:10.095Z,94.12
2018-07-22T05:12:10.039Z,94.02
2018-07-22T05:13:10.067Z,93.91
2018-07-22T05:14:10.003Z,93.67
2018-07-22T05:15:10.103Z,93.56
2018-07-22T05:16:10.074Z,93.51
2018-07-22T05:17:10.036Z,93.45
2018-07-22T05:18:10.099Z,93.26
2018-07-22T05:19:10.087Z,93.10
2018-07-22T05:20:10.023Z,92.95
2018-07-22T05:21:10.035Z,92.84
2018-07-22T05:22:10.105Z,92.84
2018-07-22T05:23:10.051Z,92.89
2018-07-22T05:24:10.071Z,92.89
2018-07-22T05:25:10.043Z,92.89
2018-07-22T05:26:10.061Z,92.59
2018-07-22T05:27:10.080Z,92.05
2018-07-22T05:28:10.094Z,91.84
2018-07-22T05:29:10.076Z,91.95
2018-07-22T05:30:10.012Z,91.63
2018-07-22T05:31:10.077Z,91.33
2018-07-22T05:32:10.049Z,91.07
2018-07-22T05:33:10.076Z,90.74
2018-07-22T05:34:10.250Z,90.71
2018-07-22T05:35:10.081Z,90.34
2018-07-22T05:36:10.083Z,90.15
2018-07-22T05:37:10.078Z,90.13
2018-07-22T05:38:10.018Z,90.15
2018-07-22T05:39:10.021Z,90.07
2018-07-22T05:40:10.017Z,90.02
2018-07-22T05:41:10.081Z,90.13
2018-07-22T05:42:10.063Z,90.26
2018-07-22T05:43:10.117Z,90.66
2018-07-22T05:44:10.110Z,90.45
2018-07-22T05:45:10.086Z,89.40
2018-07-22T05:46:10.053Z,89.35
2018-07-22T05:47:10.027Z,89.35
2018-07-22T05:48:10.112Z,88.87
2018-07-22T05:49:10.065Z,88.52
2018-07-22T05:50:10.080Z,88.15
2018-07-22T05:51:10.012Z,86.97
2018-07-22T05:52:10.031Z,86.49
2018-07-22T05:53:10.057Z,86.46
2018-07-22T05:54:10.119Z,86.12
2018-07-22T05:55:10.017Z,86.04
2018-07-22T05:56:10.095Z,85.77
2018-07-22T05:57:10.091Z,85.53
2018-07-22T05:58:10.057Z,85.43
2018-07-22T05:59:10.054Z,85.05
2018-07-22T06:00:10.111Z,85.00
2018-07-22T06:01:10.055Z,85.38
2018-07-22T06:02:10.124Z,85.56
2018-07-22T06:03:10.137Z,85.56
2018-07-22T06:04:10.093Z,85.56
2018-07-22T06:05:10.121Z,85.24
2018-07-22T06:06:10.070Z,85.08
2018-07-22T06:07:10.122Z,84.87
2018-07-22T06:08:10.041Z,84.87
2018-07-22T06:09:10.147Z,84.97
2018-07-22T06:10:10.130Z,84.92
2018-07-22T06:11:10.057Z,84.58
2018-07-22T06:12:10.167Z,84.39
2018-07-22T06:13:10.010Z,84.28
2018-07-22T06:14:10.081Z,84.17
2018-07-22T06:15:10.005Z,83.06
2018-07-22T06:16:10.127Z,82.77
2018-07-22T06:17:10.070Z,83.12
2018-07-22T06:18:10.086Z,81.92
2018-07-22T06:19:10.134Z,81.13
2018-07-22T06:20:10.150Z,80.41
2018-07-22T06:21:10.047Z,80.31
2018-07-22T06:22:10.069Z,80.23
2018-07-22T06:23:10.135Z,79.91
2018-07-22T06:24:10.111Z,79.41
2018-07-22T06:25:10.014Z,78.25
2018-07-22T06:26:10.022Z,77.31
2018-07-22T06:27:10.140Z,77.09
2018-07-22T06:28:10.135Z,77.02
2018-07-22T06:29:10.137Z,77.67
2018-07-22T06:30:10.094Z,76.44
2018-07-22T06:31:10.131Z,75.94
2018-07-22T06:32:10.134Z,75.41
2018-07-22T06:33:10.091Z,74.89
2018-07-22T06:34:10.102Z,74.71
2018-07-22T06:35:10.156Z,75.05
2018-07-22T06:36:10.086Z,74.60
2018-07-22T06:37:10.159Z,73.89
2018-07-22T06:38:10.127Z,73.79
2018-07-22T06:39:10.082Z,74.63
2018-07-22T06:40:10.083Z,73.53
2018-07-22T06:41:10.046Z,73.82
2018-07-22T06:42:10.078Z,73.27
2018-07-22T06:43:10.135Z,72.83
2018-07-22T06:44:10.092Z,73.14
2018-07-22T06:45:10.106Z,73.45
2018-07-22T06:46:10.147Z,73.37
2018-07-22T06:47:10.039Z,72.67
2018-07-22T06:48:10.100Z,72.56
2018-07-22T06:49:10.132Z,72.33
2018-07-22T06:50:10.029Z,71.83
2018-07-22T06:51:10.134Z,71.10
2018-07-22T06:52:10.145Z,72.14
2018-07-22T06:53:10.070Z,71.49
2018-07-22T06:54:10.098Z,71.49
2018-07-22T06:55:10.093Z,70.64
2018-07-22T06:56:10.094Z,70.11
2018-07-22T06:57:10.099Z,70.21
2018-07-22T06:58:10.174Z,69.98
2018-07-22T06:59:10.100Z,69.26
2018-07-22T07:00:10.181Z,68.14
2018-07-22T07:01:10.107Z,68.74
2018-07-22T07:02:10.172Z,68.06
2018-07-22T07:03:10.007Z,66.30
2018-07-22T07:04:10.071Z,64.78
2018-07-22T07:05:10.131Z,65.08
2018-07-22T07:06:10.046Z,65.83
2018-07-22T07:07:10.128Z,65.94
2018-07-22T07:08:10.134Z,65.39
2018-07-22T07:09:10.014Z,66.12
2018-07-22T07:10:10.138Z,66.01
2018-07-22T07:11:10.062Z,65.39
2018-07-22T07:12:10.132Z,65.26
2018-07-22T07:13:10.093Z,65.99
2018-07-22T07:14:10.076Z,66.95
2018-07-22T07:15:10.146Z,67.36
2018-07-22T07:16:10.079Z,65.06
2018-07-22T07:17:10.146Z,65.73
2018-07-22T07:18:10.083Z,63.77
2018-07-22T07:19:10.148Z,64.26
2018-07-22T07:20:10.086Z,64.44
2018-07-22T07:21:10.088Z,64.57
2018-07-22T07:22:10.218Z,64.59
2018-07-22T07:23:10.177Z,65.18
2018-07-22T07:24:10.181Z,63.26
2018-07-22T07:25:10.181Z,64.18
2018-07-22T07:26:10.184Z,64.38
2018-07-22T07:27:10.119Z,63.35
2018-07-22T07:28:10.134Z,63.46
2018-07-22T07:29:10.135Z,63.05
2018-07-22T07:30:10.186Z,63.26
2018-07-22T07:31:10.122Z,63.54
2018-07-22T07:32:10.113Z,64.52
2018-07-22T07:33:10.115Z,63.92
2018-07-22T07:34:10.120Z,62.99
2018-07-22T07:35:10.057Z,62.48
2018-07-22T07:36:10.098Z,64.46
2018-07-22T07:37:10.189Z,63.23
2018-07-22T07:38:10.180Z,61.58
2018-07-22T07:39:10.144Z,61.22
2018-07-22T07:40:10.101Z,62.30
2018-07-22T07:41:10.092Z,63.13
2018-07-22T07:42:10.067Z,63.43
2018-07-22T07:43:10.101Z,64.62
2018-07-22T07:44:10.166Z,64.38
2018-07-22T07:45:10.100Z,64.31
2018-07-22T07:46:10.167Z,62.87
2018-07-22T07:47:10.103Z,62.48
2018-07-22T07:48:10.167Z,63.95
2018-07-22T07:49:10.104Z,63.20
2018-07-22T07:50:10.106Z,63.23
2018-07-22T07:51:10.107Z,63.82
2018-07-22T07:52:10.170Z,62.53
2018-07-22T07:53:10.109Z,63.69
2018-07-22T07:54:10.171Z,61.99
2018-07-22T07:55:10.103Z,61.63
2018-07-22T07:56:10.106Z,61.14
2018-07-22T07:57:10.107Z,61.09
2018-07-22T07:58:10.176Z,61.22
2018-07-22T07:59:10.145Z,61.27
2018-07-22T08:00:10.178Z,61.53
2018-07-22T08:01:10.111Z,61.66
2018-07-22T08:02:10.176Z,61.43
2018-07-22T08:03:10.193Z,61.91
2018-07-22T08:04:10.208Z,61.46
2018-07-22T08:05:10.207Z,62.61
2018-07-22T08:06:10.213Z,63.13
2018-07-22T08:07:10.315Z,63.18
2018-07-22T08:08:10.217Z,63.02
2018-07-22T08:09:10.186Z,60.71
2018-07-22T08:10:10.184Z,60.58
2018-07-22T08:11:10.185Z,60.55
2018-07-22T08:12:10.167Z,60.68
2018-07-22T08:13:10.127Z,61.35
2018-07-22T08:14:10.187Z,61.43
2018-07-22T08:15:10.190Z,60.94
2018-07-22T08:16:10.167Z,60.58
2018-07-22T08:17:10.188Z,59.07
2018-07-22T08:18:10.195Z,60.22
2018-07-22T08:19:10.204Z,59.97
2018-07-22T08:20:10.125Z,60.22
2018-07-22T08:21:10.192Z,60.20
2018-07-22T08:22:10.140Z,60.63
2018-07-22T08:23:10.128Z,61.40
2018-07-22T08:24:10.128Z,61.89
2018-07-22T08:25:10.129Z,61.82
2018-07-22T08:26:10.139Z,63.41
2018-07-22T08:27:10.199Z,61.22
2018-07-22T08:28:10.198Z,61.09
2018-07-22T08:29:10.204Z,61.56
2018-07-22T08:30:10.267Z,60.84
2018-07-22T08:31:10.133Z,60.61
2018-07-22T08:32:10.197Z,60.43
2018-07-22T08:33:10.139Z,59.43
2018-07-22T08:34:10.089Z,59.32
2018-07-22T08:35:10.133Z,59.68
2018-07-22T08:36:10.152Z,59.71
2018-07-22T08:37:10.180Z,59.68
2018-07-22T08:38:10.072Z,57.41
2018-07-22T08:39:10.137Z,56.54
2018-07-22T08:40:10.097Z,57.46
2018-07-22T08:41:10.250Z,56.18
2018-07-22T08:42:10.093Z,56.00
2018-07-22T08:43:10.100Z,58.07
2018-07-22T08:44:10.180Z,56.08
2018-07-22T08:45:10.168Z,56.59
2018-07-22T08:46:10.164Z,54.71
2018-07-22T08:47:10.229Z,55.55
2018-07-22T08:48:10.170Z,56.82
2018-07-22T08:49:10.182Z,54.76
2018-07-22T08:50:10.193Z,54.94
2018-07-22T08:51:10.137Z,54.00
2018-07-22T08:52:10.184Z,56.00
2018-07-22T08:53:10.229Z,56.11
2018-07-22T08:54:10.148Z,54.25
2018-07-22T08:55:10.220Z,54.43
2018-07-22T08:56:10.151Z,54.58
2018-07-22T08:57:10.213Z,52.83
2018-07-22T08:58:10.151Z,52.75
2018-07-22T08:59:10.218Z,52.90
2018-07-22T09:00:10.158Z,52.32
2018-07-22T09:01:10.222Z,50.63
2018-07-22T09:02:10.156Z,53.26
2018-07-22T09:03:10.162Z,51.99
2018-07-22T09:04:10.223Z,51.26
2018-07-22T09:05:10.155Z,51.16
2018-07-22T09:06:10.230Z,51.13
2018-07-22T09:07:10.157Z,51.74
2018-07-22T09:08:10.203Z,51.95
2018-07-22T09:09:10.230Z,52.93
2018-07-22T09:10:10.160Z,52.88
2018-07-22T09:11:10.159Z,53.90
2018-07-22T09:12:10.163Z,52.50
2018-07-22T09:13:10.232Z,50.96
2018-07-22T09:14:10.173Z,51.19
2018-07-22T09:15:10.260Z,50.75
2018-07-22T09:16:10.232Z,52.30
2018-07-22T09:17:10.160Z,52.55
2018-07-22T09:18:10.253Z,51.37
2018-07-22T09:19:10.234Z,50.66
2018-07-22T09:20:10.155Z,51.54
2018-07-22T09:21:10.135Z,51.46
2018-07-22T09:22:10.164Z,50.48
2018-07-22T09:23:10.236Z,50.98
2018-07-22T09:24:10.172Z,49.12
2018-07-22T09:25:10.188Z,50.07
2018-07-22T09:26:10.264Z,52.27
2018-07-22T09:27:10.283Z,48.59
2018-07-22T09:28:10.237Z,47.98
2018-07-22T09:29:10.197Z,48.99
2018-07-22T09:30:10.260Z,49.29
2018-07-22T09:31:10.177Z,49.92
2018-07-22T09:32:10.239Z,49.22
2018-07-22T09:33:10.141Z,50.43
2018-07-22T09:34:10.270Z,49.67
2018-07-22T09:35:10.217Z,50.88
2018-07-22T09:36:10.389Z,50.83
2018-07-22T09:37:10.150Z,50.71
2018-07-22T09:38:10.277Z,52.65
2018-07-22T09:39:10.341Z,51.33
2018-07-22T09:40:10.246Z,49.57
2018-07-22T09:41:10.202Z,50.25
2018-07-22T09:42:10.292Z,50.50
2018-07-22T09:43:10.154Z,51.26
2018-07-22T09:44:10.184Z,51.04
2018-07-22T09:45:10.181Z,50.66
2018-07-22T09:46:10.181Z,51.08
2018-07-22T09:47:10.249Z,50.68
2018-07-22T09:48:10.302Z,50.98
2018-07-22T09:49:10.248Z,51.49
2018-07-22T09:50:10.194Z,53.29
2018-07-22T09:51:10.245Z,50.80
2018-07-22T09:52:10.185Z,51.06
2018-07-22T09:53:10.190Z,50.80
2018-07-22T09:54:10.213Z,51.66
2018-07-22T09:55:10.195Z,51.08
2018-07-22T09:56:10.287Z,51.54
2018-07-22T09:57:10.267Z,52.15
2018-07-22T09:58:10.228Z,52.45
2018-07-22T09:59:10.265Z,52.65
2018-07-22T10:00:10.286Z,53.01
2018-07-22T10:01:10.159Z,52.70
2018-07-22T10:02:10.260Z,53.44
2018-07-22T10:03:10.262Z,54.28
2018-07-22T10:04:10.252Z,54.56
2018-07-22T10:05:10.250Z,53.47
2018-07-22T10:06:10.251Z,52.65
2018-07-22T10:07:10.172Z,54.04
2018-07-22T10:08:10.147Z,53.64
2018-07-22T10:09:10.260Z,52.75
2018-07-22T10:10:10.262Z,52.40
2018-07-22T10:11:10.332Z,52.85
2018-07-22T10:12:10.192Z,52.81
2018-07-22T10:13:10.260Z,52.43
2018-07-22T10:14:10.166Z,52.45
2018-07-22T10:15:10.175Z,53.18
2018-07-22T10:16:10.217Z,52.15
2018-07-22T10:17:10.173Z,53.34
2018-07-22T10:18:10.167Z,52.98
2018-07-22T10:19:10.220Z,53.18
2018-07-22T10:20:10.180Z,52.55
2018-07-22T10:21:10.220Z,52.20
2018-07-22T10:22:10.190Z,51.87
2018-07-22T10:23:10.172Z,52.37
2018-07-22T10:24:10.181Z,53.06
2018-07-22T10:25:10.266Z,52.45
2018-07-22T10:26:10.230Z,52.88
2018-07-22T10:27:10.265Z,54.02
2018-07-22T10:28:10.271Z,51.33
2018-07-22T10:29:10.167Z,50.53
2018-07-22T10:30:10.230Z,52.50
2018-07-22T10:31:10.269Z,55.67
2018-07-22T10:32:10.284Z,54.02
2018-07-22T10:33:10.186Z,54.45
2018-07-22T10:34:10.184Z,48.26
2018-07-22T10:35:10.230Z,46.88
2018-07-22T10:36:10.229Z,47.48
2018-07-22T10:37:10.230Z,46.45
2018-07-22T10:38:10.274Z,48.01
2018-07-22T10:39:10.282Z,44.60
2018-07-22T10:40:10.224Z,44.27
2018-07-22T10:41:10.241Z,44.95
2018-07-22T10:42:10.192Z,45.15
2018-07-22T10:43:10.304Z,45.55
2018-07-22T10:44:10.162Z,45.90
2018-07-22T10:45:10.224Z,45.37
2018-07-22T10:46:10.198Z,45.45
2018-07-22T10:47:10.285Z,45.70
2018-07-22T10:48:10.230Z,47.10
2018-07-22T10:49:10.166Z,47.76
2018-07-22T10:50:10.300Z,46.18
2018-07-22T10:51:10.227Z,46.81
2018-07-22T10:52:10.166Z,47.10
2018-07-22T10:53:10.250Z,48.06
2018-07-22T10:54:10.270Z,49.72
2018-07-22T10:55:10.317Z,50.22
2018-07-22T10:56:10.332Z,49.72
2018-07-22T10:57:10.298Z,49.90
2018-07-22T10:58:10.202Z,50.18
2018-07-22T10:59:10.323Z,50.66
2018-07-22T11:00:10.220Z,50.02
2018-07-22T11:01:10.256Z,51.21
2018-07-22T11:02:10.275Z,51.37
2018-07-22T11:03:10.290Z,52.04
2018-07-22T11:04:10.270Z,52.63
2018-07-22T11:05:10.324Z,52.68
2018-07-22T11:06:10.259Z,52.25
2018-07-22T11:07:10.316Z,53.47
2018-07-22T11:08:10.284Z,53.36
2018-07-22T11:09:10.343Z,52.12
2018-07-22T11:10:10.235Z,53.56
2018-07-22T11:11:10.265Z,51.95
2018-07-22T11:12:10.346Z,53.21
2018-07-22T11:13:10.273Z,50.86
2018-07-22T11:14:10.336Z,51.69
2018-07-22T11:15:10.230Z,52.96
2018-07-22T11:16:10.208Z,51.64
2018-07-22T11:17:10.337Z,51.92
2018-07-22T11:18:10.231Z,54.17
2018-07-22T11:19:10.269Z,51.46
2018-07-22T11:20:10.277Z,51.89
2018-07-22T11:21:10.331Z,52.83
2018-07-22T11:22:10.222Z,51.31
2018-07-22T11:23:10.273Z,51.04
2018-07-22T11:24:10.253Z,51.24
2018-07-22T11:25:10.317Z,51.44
2018-07-22T11:26:10.280Z,50.58
2018-07-22T11:27:10.266Z,51.46
2018-07-22T11:28:10.254Z,50.88
2018-07-22T11:29:10.363Z,50.83
2018-07-22T11:30:10.319Z,49.32
2018-07-22T11:31:10.322Z,49.57
2018-07-22T11:32:10.321Z,50.58
2018-07-22T11:33:10.259Z,49.69
2018-07-22T11:34:10.386Z,49.12
2018-07-22T11:35:10.288Z,49.34
2018-07-22T11:36:10.272Z,48.99
2018-07-22T11:37:10.360Z,49.04
2018-07-22T11:38:10.369Z,48.79
2018-07-22T11:39:10.363Z,47.58
2018-07-22T11:40:10.329Z,47.28
2018-07-22T11:41:10.266Z,47.81
2018-07-22T11:42:10.329Z,47.63
2018-07-22T11:43:10.357Z,49.02
2018-07-22T11:44:10.295Z,50.63
2018-07-22T11:45:10.306Z,50.02
2018-07-22T11:46:10.352Z,50.43
2018-07-22T11:47:10.303Z,50.18
2018-07-22T11:48:10.303Z,50.91
2018-07-22T11:49:10.306Z,50.30
2018-07-22T11:50:10.256Z,50.66
2018-07-22T11:51:10.369Z,52.35
2018-07-22T11:52:10.307Z,50.73
2018-07-22T11:53:10.294Z,51.46
2018-07-22T11:54:10.337Z,50.48
2018-07-22T11:55:10.270Z,50.98
2018-07-22T11:56:10.339Z,51.29
2018-07-22T11:57:10.336Z,51.54
2018-07-22T11:58:10.340Z,51.51
2018-07-22T11:59:10.344Z,52.57
2018-07-22T12:00:10.280Z,52.57
2018-07-22T12:01:10.277Z,51.29
2018-07-22T12:02:10.279Z,50.71
2018-07-22T12:03:10.351Z,52.35
2018-07-22T12:04:10.321Z,52.07
2018-07-22T12:05:10.369Z,50.68
2018-07-22T12:06:10.306Z,50.48
2018-07-22T12:07:10.345Z,51.19
2018-07-22T12:08:10.316Z,52.25
2018-07-22T12:09:10.364Z,53.92
2018-07-22T12:10:10.379Z,53.87
2018-07-22T12:11:10.298Z,54.63
2018-07-22T12:12:10.328Z,55.19
2018-07-22T12:13:10.377Z,55.09
2018-07-22T12:14:10.347Z,56.08
2018-07-22T12:15:10.352Z,55.91
2018-07-22T12:16:10.349Z,54.63
2018-07-22T12:17:10.350Z,55.96
2018-07-22T12:18:10.287Z,56.16
2018-07-22T12:19:10.289Z,57.74
2018-07-22T12:20:10.351Z,59.84
2018-07-22T12:21:10.298Z,59.12
2018-07-22T12:22:10.361Z,59.32
2018-07-22T12:23:10.297Z,60.58
2018-07-22T12:24:10.358Z,61.27
2018-07-22T12:25:10.293Z,62.87
2018-07-22T12:26:10.356Z,64.42
2018-07-22T12:27:10.302Z,65.62
2018-07-22T12:28:10.489Z,66.79
2018-07-22T12:29:10.343Z,67.05
2018-07-22T12:30:10.364Z,67.70
2018-07-22T12:31:10.316Z,68.11
2018-07-22T12:32:10.303Z,68.35
2018-07-22T12:33:10.359Z,68.87
2018-07-22T12:34:10.301Z,69.34
2018-07-22T12:35:10.303Z,69.72
2018-07-22T12:36:10.299Z,69.34
2018-07-22T12:37:10.302Z,69.72
2018-07-22T12:38:10.303Z,69.38
2018-07-22T12:39:10.299Z,69.07
2018-07-22T12:40:10.368Z,69.07
2018-07-22T12:41:10.368Z,68.99
2018-07-22T12:42:10.370Z,69.07
2018-07-22T12:43:10.369Z,68.97
2018-07-22T12:44:10.402Z,69.07
2018-07-22T12:45:10.404Z,68.91
2018-07-22T12:46:10.390Z,68.76
2018-07-22T12:47:10.350Z,69.26
2018-07-22T12:48:10.449Z,69.41
2018-07-22T12:49:10.373Z,69.18
2018-07-22T12:50:10.279Z,70.04
2018-07-22T12:51:10.353Z,69.41
2018-07-22T12:52:10.281Z,69.80